sensor_id;sensor_type;location;lat;lon;timestamp;P1;durP1;ratioP1;P2;durP2;ratioP2
20365;SDS011;10341;49.894;8.822;2022-07-23T00:05:10;7.97;;;5.13;;
20365;SDS011;10341;49.894;8.822;2022-07-23T00:10:29;7.70;;;5.17;;
20365;SDS011;10341;49.894;8.822;2022-07-23T00:15:48;4.63;;;4.05;;
20365;SDS011;10341;49.894;8.822;2022-07-23T00:21:07;5.28;;;4.47;;
20365;SDS011;10341;49.894;8.822;2022-07-23T00:26:26;5.07;;;3.95;;
20365;SDS011;10341;49.894;8.822;2022-07-23T00:31:45;5.60;;;4.18;;
20365;SDS011;10341;49.894;8.822;2022-07-23T00:37:04;4.97;;;4.03;;
20365;SDS011;10341;49.894;8.822;2022-07-23T00:42:23;5.50;;;4.38;;
20365;SDS011;10341;49.894;8.822;2022-07-23T00:47:43;4.73;;;3.87;;
20365;SDS011;10341;49.894;8.822;2022-07-23T00:53:03;5.83;;;4.70;;
20365;SDS011;10341;49.894;8.822;2022-07-23T00:58:23;6.95;;;4.75;;
20365;SDS011;10341;49.894;8.822;2022-07-23T01:03:43;7.40;;;5.03;;
20365;SDS011;10341;49.894;8.822;2022-07-23T01:09:03;6.85;;;5.05;;
20365;SDS011;10341;49.894;8.822;2022-07-23T01:14:24;11.20;;;6.20;;
20365;SDS011;10341;49.894;8.822;2022-07-23T01:19:43;8.07;;;5.33;;
20365;SDS011;10341;49.894;8.822;2022-07-23T01:25:03;7.63;;;4.80;;
20365;SDS011;10341;49.894;8.822;2022-07-23T01:30:22;7.00;;;5.00;;
20365;SDS011;10341;49.894;8.822;2022-07-23T01:35:42;6.50;;;4.70;;
20365;SDS011;10341;49.894;8.822;2022-07-23T01:41:02;8.10;;;5.13;;
20365;SDS011;10341;49.894;8.822;2022-07-23T01:46:24;6.65;;;5.10;;
20365;SDS011;10341;49.894;8.822;2022-07-23T01:51:43;8.33;;;5.10;;
20365;SDS011;10341;49.894;8.822;2022-07-23T01:57:27;7.13;;;5.43;;
20365;SDS011;10341;49.894;8.822;2022-07-23T02:02:46;6.90;;;5.20;;
20365;SDS011;10341;49.894;8.822;2022-07-23T02:08:05;6.75;;;4.60;;
20365;SDS011;10341;49.894;8.822;2022-07-23T02:13:27;7.68;;;5.18;;
20365;SDS011;10341;49.894;8.822;2022-07-23T02:18:47;7.00;;;4.90;;
20365;SDS011;10341;49.894;8.822;2022-07-23T02:24:06;7.05;;;5.25;;
20365;SDS011;10341;49.894;8.822;2022-07-23T02:29:27;7.80;;;5.22;;
20365;SDS011;10341;49.894;8.822;2022-07-23T02:34:47;8.18;;;5.35;;
20365;SDS011;10341;49.894;8.822;2022-07-23T02:40:08;6.63;;;4.68;;
20365;SDS011;10341;49.894;8.822;2022-07-23T02:45:32;8.18;;;5.45;;
20365;SDS011;10341;49.894;8.822;2022-07-23T02:50:52;10.82;;;6.15;;
20365;SDS011;10341;49.894;8.822;2022-07-23T02:56:15;8.20;;;6.00;;
20365;SDS011;10341;49.894;8.822;2022-07-23T03:01:35;10.98;;;6.05;;
20365;SDS011;10341;49.894;8.822;2022-07-23T03:12:14;8.05;;;6.05;;
20365;SDS011;10341;49.894;8.822;2022-07-23T03:17:34;7.90;;;5.57;;
20365;SDS011;10341;49.894;8.822;2022-07-23T03:22:53;8.95;;;6.72;;
20365;SDS011;10341;49.894;8.822;2022-07-23T03:28:13;8.30;;;6.07;;
20365;SDS011;10341;49.894;8.822;2022-07-23T03:33:34;8.27;;;6.18;;
20365;SDS011;10341;49.894;8.822;2022-07-23T03:38:53;9.77;;;6.33;;
20365;SDS011;10341;49.894;8.822;2022-07-23T03:44:13;10.47;;;7.20;;
20365;SDS011;10341;49.894;8.822;2022-07-23T03:49:35;9.80;;;6.57;;
20365;SDS011;10341;49.894;8.822;2022-07-23T03:54:54;7.88;;;5.85;;
20365;SDS011;10341;49.894;8.822;2022-07-23T04:00:16;9.90;;;6.30;;
20365;SDS011;10341;49.894;8.822;2022-07-23T04:05:37;9.40;;;6.03;;
20365;SDS011;10341;49.894;8.822;2022-07-23T04:11:01;9.02;;;6.07;;
20365;SDS011;10341;49.894;8.822;2022-07-23T04:16:21;10.93;;;6.72;;
20365;SDS011;10341;49.894;8.822;2022-07-23T04:21:40;10.37;;;7.17;;
20365;SDS011;10341;49.894;8.822;2022-07-23T04:27:00;8.03;;;6.00;;
20365;SDS011;10341;49.894;8.822;2022-07-23T04:32:19;8.30;;;6.35;;
20365;SDS011;10341;49.894;8.822;2022-07-23T04:37:39;8.43;;;6.50;;
20365;SDS011;10341;49.894;8.822;2022-07-23T04:42:59;11.47;;;6.67;;
20365;SDS011;10341;49.894;8.822;2022-07-23T04:48:18;12.67;;;6.93;;
20365;SDS011;10341;49.894;8.822;2022-07-23T04:53:40;9.32;;;6.43;;
20365;SDS011;10341;49.894;8.822;2022-07-23T04:58:59;10.93;;;6.40;;
20365;SDS011;10341;49.894;8.822;2022-07-23T05:04:19;10.70;;;6.97;;
20365;SDS011;10341;49.894;8.822;2022-07-23T05:09:39;7.45;;;5.57;;
20365;SDS011;10341;49.894;8.822;2022-07-23T05:14:59;10.00;;;6.17;;
20365;SDS011;10341;49.894;8.822;2022-07-23T05:20:19;9.32;;;6.10;;
20365;SDS011;10341;49.894;8.822;2022-07-23T05:25:39;9.00;;;5.90;;
20365;SDS011;10341;49.894;8.822;2022-07-23T05:30:59;10.10;;;6.95;;
20365;SDS011;10341;49.894;8.822;2022-07-23T05:36:18;7.63;;;5.67;;
20365;SDS011;10341;49.894;8.822;2022-07-23T05:41:45;9.85;;;6.60;;
20365;SDS011;10341;49.894;8.822;2022-07-23T05:47:04;10.05;;;6.25;;
20365;SDS011;10341;49.894;8.822;2022-07-23T05:52:24;8.50;;;6.30;;
20365;SDS011;10341;49.894;8.822;2022-07-23T05:58:18;8.77;;;5.93;;
20365;SDS011;10341;49.894;8.822;2022-07-23T06:03:38;8.57;;;5.90;;
20365;SDS011;10341;49.894;8.822;2022-07-23T06:08:57;9.80;;;6.18;;
20365;SDS011;10341;49.894;8.822;2022-07-23T06:14:16;9.95;;;6.50;;
20365;SDS011;10341;49.894;8.822;2022-07-23T06:19:48;8.18;;;5.55;;
20365;SDS011;10341;49.894;8.822;2022-07-23T06:25:08;8.63;;;5.88;;
20365;SDS011;10341;49.894;8.822;2022-07-23T06:30:27;9.98;;;6.18;;
20365;SDS011;10341;49.894;8.822;2022-07-23T06:35:46;7.57;;;5.63;;
20365;SDS011;10341;49.894;8.822;2022-07-23T06:41:05;8.50;;;5.03;;
20365;SDS011;10341;49.894;8.822;2022-07-23T06:46:24;8.85;;;5.95;;
20365;SDS011;10341;49.894;8.822;2022-07-23T06:51:44;7.90;;;5.65;;
20365;SDS011;10341;49.894;8.822;2022-07-23T06:57:03;6.63;;;5.20;;
20365;SDS011;10341;49.894;8.822;2022-07-23T07:02:22;8.98;;;5.70;;
20365;SDS011;10341;49.894;8.822;2022-07-23T07:07:41;7.72;;;5.75;;
20365;SDS011;10341;49.894;8.822;2022-07-23T07:13:00;7.80;;;5.50;;
20365;SDS011;10341;49.894;8.822;2022-07-23T07:18:20;7.88;;;5.60;;
20365;SDS011;10341;49.894;8.822;2022-07-23T07:23:39;6.63;;;5.03;;
20365;SDS011;10341;49.894;8.822;2022-07-23T07:28:58;6.90;;;5.73;;
20365;SDS011;10341;49.894;8.822;2022-07-23T07:34:17;6.57;;;5.25;;
20365;SDS011;10341;49.894;8.822;2022-07-23T07:39:37;7.53;;;5.78;;
20365;SDS011;10341;49.894;8.822;2022-07-23T07:44:56;5.80;;;4.82;;
20365;SDS011;10341;49.894;8.822;2022-07-23T07:50:15;5.88;;;4.80;;
20365;SDS011;10341;49.894;8.822;2022-07-23T07:55:34;8.00;;;5.70;;
20365;SDS011;10341;49.894;8.822;2022-07-23T08:00:53;6.68;;;5.13;;
20365;SDS011;10341;49.894;8.822;2022-07-23T08:06:13;5.63;;;5.03;;
20365;SDS011;10341;49.894;8.822;2022-07-23T08:11:32;6.87;;;5.50;;
20365;SDS011;10341;49.894;8.822;2022-07-23T08:16:51;5.90;;;4.67;;
20365;SDS011;10341;49.894;8.822;2022-07-23T08:22:10;6.15;;;4.95;;
20365;SDS011;10341;49.894;8.822;2022-07-23T08:27:29;6.97;;;5.17;;
20365;SDS011;10341;49.894;8.822;2022-07-23T08:32:58;5.85;;;4.65;;
20365;SDS011;10341;49.894;8.822;2022-07-23T08:38:22;6.25;;;4.10;;
20365;SDS011;10341;49.894;8.822;2022-07-23T08:43:43;5.13;;;3.60;;
20365;SDS011;10341;49.894;8.822;2022-07-23T08:49:03;4.78;;;3.80;;
20365;SDS011;10341;49.894;8.822;2022-07-23T08:54:23;5.00;;;4.00;;
20365;SDS011;10341;49.894;8.822;2022-07-23T08:59:42;4.78;;;3.70;;
20365;SDS011;10341;49.894;8.822;2022-07-23T09:05:01;4.57;;;4.10;;
20365;SDS011;10341;49.894;8.822;2022-07-23T09:10:20;4.80;;;4.35;;
20365;SDS011;10341;49.894;8.822;2022-07-23T09:15:48;5.85;;;4.40;;
20365;SDS011;10341;49.894;8.822;2022-07-23T09:21:20;5.15;;;4.20;;
20365;SDS011;10341;49.894;8.822;2022-07-23T09:32:05;4.38;;;3.80;;
20365;SDS011;10341;49.894;8.822;2022-07-23T09:37:31;5.10;;;4.15;;
20365;SDS011;10341;49.894;8.822;2022-07-23T09:42:57;5.30;;;4.22;;
20365;SDS011;10341;49.894;8.822;2022-07-23T09:48:16;5.60;;;4.40;;
20365;SDS011;10341;49.894;8.822;2022-07-23T09:53:36;4.88;;;4.25;;
20365;SDS011;10341;49.894;8.822;2022-07-23T09:58:56;4.63;;;4.10;;
20365;SDS011;10341;49.894;8.822;2022-07-23T10:04:23;5.77;;;4.00;;
20365;SDS011;10341;49.894;8.822;2022-07-23T10:10:08;4.25;;;3.85;;
20365;SDS011;10341;49.894;8.822;2022-07-23T10:15:48;6.20;;;3.70;;
20365;SDS011;10341;49.894;8.822;2022-07-23T10:21:09;4.10;;;3.70;;
20365;SDS011;10341;49.894;8.822;2022-07-23T10:26:37;4.18;;;3.50;;
20365;SDS011;10341;49.894;8.822;2022-07-23T10:32:08;4.63;;;3.90;;
20365;SDS011;10341;49.894;8.822;2022-07-23T10:37:54;4.38;;;3.67;;
20365;SDS011;10341;49.894;8.822;2022-07-23T10:43:29;4.20;;;3.80;;
20365;SDS011;10341;49.894;8.822;2022-07-23T10:49:20;5.18;;;3.72;;
20365;SDS011;10341;49.894;8.822;2022-07-23T11:00:20;4.80;;;4.18;;
20365;SDS011;10341;49.894;8.822;2022-07-23T11:05:41;4.60;;;3.55;;
20365;SDS011;10341;49.894;8.822;2022-07-23T11:16:22;3.88;;;3.38;;
20365;SDS011;10341;49.894;8.822;2022-07-23T11:21:43;4.00;;;3.55;;
20365;SDS011;10341;49.894;8.822;2022-07-23T11:27:03;3.70;;;3.40;;
20365;SDS011;10341;49.894;8.822;2022-07-23T11:32:24;4.15;;;3.42;;
20365;SDS011;10341;49.894;8.822;2022-07-23T11:37:47;4.60;;;4.20;;
20365;SDS011;10341;49.894;8.822;2022-07-23T11:43:07;4.78;;;4.15;;
20365;SDS011;10341;49.894;8.822;2022-07-23T11:48:28;4.38;;;3.97;;
20365;SDS011;10341;49.894;8.822;2022-07-23T11:53:48;6.60;;;4.63;;
20365;SDS011;10341;49.894;8.822;2022-07-23T12:04:39;4.73;;;4.23;;
20365;SDS011;10341;49.894;8.822;2022-07-23T12:10:05;4.60;;;4.20;;
20365;SDS011;10341;49.894;8.822;2022-07-23T12:15:42;6.95;;;4.18;;
20365;SDS011;10341;49.894;8.822;2022-07-23T12:21:03;4.63;;;4.05;;
20365;SDS011;10341;49.894;8.822;2022-07-23T12:26:25;4.30;;;3.90;;
20365;SDS011;10341;49.894;8.822;2022-07-23T12:37:03;5.00;;;4.10;;
20365;SDS011;10341;49.894;8.822;2022-07-23T12:53:21;5.13;;;4.40;;
20365;SDS011;10341;49.894;8.822;2022-07-23T12:59:05;4.93;;;4.43;;
20365;SDS011;10341;49.894;8.822;2022-07-23T13:04:30;5.90;;;5.23;;
20365;SDS011;10341;49.894;8.822;2022-07-23T13:09:51;5.85;;;4.90;;
20365;SDS011;10341;49.894;8.822;2022-07-23T13:15:10;5.63;;;4.68;;
20365;SDS011;10341;49.894;8.822;2022-07-23T13:20:29;5.75;;;4.65;;
20365;SDS011;10341;49.894;8.822;2022-07-23T13:25:50;4.97;;;4.35;;
20365;SDS011;10341;49.894;8.822;2022-07-23T13:31:09;6.15;;;5.25;;
20365;SDS011;10341;49.894;8.822;2022-07-23T13:36:29;5.13;;;4.32;;
20365;SDS011;10341;49.894;8.822;2022-07-23T13:41:48;4.60;;;4.15;;
20365;SDS011;10341;49.894;8.822;2022-07-23T13:47:07;4.82;;;4.32;;
20365;SDS011;10341;49.894;8.822;2022-07-23T13:52:27;4.72;;;3.97;;
20365;SDS011;10341;49.894;8.822;2022-07-23T13:57:46;6.35;;;4.43;;
20365;SDS011;10341;49.894;8.822;2022-07-23T14:08:24;5.17;;;4.43;;
20365;SDS011;10341;49.894;8.822;2022-07-23T14:13:43;6.05;;;4.32;;
20365;SDS011;10341;49.894;8.822;2022-07-23T14:24:21;5.40;;;4.53;;
20365;SDS011;10341;49.894;8.822;2022-07-23T14:29:41;6.75;;;4.88;;
20365;SDS011;10341;49.894;8.822;2022-07-23T14:35:00;5.45;;;4.60;;
20365;SDS011;10341;49.894;8.822;2022-07-23T14:40:19;5.05;;;4.43;;
20365;SDS011;10341;49.894;8.822;2022-07-23T14:45:39;6.22;;;4.10;;
20365;SDS011;10341;49.894;8.822;2022-07-23T14:50:58;5.35;;;4.28;;
20365;SDS011;10341;49.894;8.822;2022-07-23T14:56:17;7.20;;;4.50;;
20365;SDS011;10341;49.894;8.822;2022-07-23T15:01:37;5.00;;;4.50;;
20365;SDS011;10341;49.894;8.822;2022-07-23T15:06:57;4.70;;;4.20;;
20365;SDS011;10341;49.894;8.822;2022-07-23T15:17:36;7.03;;;4.30;;
20365;SDS011;10341;49.894;8.822;2022-07-23T15:22:55;5.50;;;4.25;;
20365;SDS011;10341;49.894;8.822;2022-07-23T15:28:14;5.10;;;4.60;;
20365;SDS011;10341;49.894;8.822;2022-07-23T15:33:34;6.00;;;4.57;;
20365;SDS011;10341;49.894;8.822;2022-07-23T15:39:02;8.18;;;4.70;;
20365;SDS011;10341;49.894;8.822;2022-07-23T15:44:22;5.32;;;4.60;;
20365;SDS011;10341;49.894;8.822;2022-07-23T15:49:41;6.63;;;4.32;;
20365;SDS011;10341;49.894;8.822;2022-07-23T15:55:00;5.60;;;4.30;;
20365;SDS011;10341;49.894;8.822;2022-07-23T16:00:20;5.50;;;4.20;;
20365;SDS011;10341;49.894;8.822;2022-07-23T16:16:18;5.97;;;4.68;;
20365;SDS011;10341;49.894;8.822;2022-07-23T16:21:38;5.22;;;4.70;;
20365;SDS011;10341;49.894;8.822;2022-07-23T16:26:57;5.72;;;4.72;;
20365;SDS011;10341;49.894;8.822;2022-07-23T16:32:16;7.57;;;4.90;;
20365;SDS011;10341;49.894;8.822;2022-07-23T16:37:35;8.18;;;5.78;;
20365;SDS011;10341;49.894;8.822;2022-07-23T16:42:55;5.63;;;4.25;;
20365;SDS011;10341;49.894;8.822;2022-07-23T16:48:15;5.13;;;4.53;;
20365;SDS011;10341;49.894;8.822;2022-07-23T16:53:34;6.60;;;4.85;;
20365;SDS011;10341;49.894;8.822;2022-07-23T16:58:54;7.88;;;4.63;;
20365;SDS011;10341;49.894;8.822;2022-07-23T17:04:13;6.75;;;4.78;;
20365;SDS011;10341;49.894;8.822;2022-07-23T17:09:32;5.57;;;4.50;;
20365;SDS011;10341;49.894;8.822;2022-07-23T17:14:52;7.15;;;4.70;;
20365;SDS011;10341;49.894;8.822;2022-07-23T17:20:13;6.28;;;5.35;;
20365;SDS011;10341;49.894;8.822;2022-07-23T17:25:32;5.97;;;4.68;;
20365;SDS011;10341;49.894;8.822;2022-07-23T17:36:11;10.35;;;8.45;;
20365;SDS011;10341;49.894;8.822;2022-07-23T17:41:30;5.90;;;5.10;;
20365;SDS011;10341;49.894;8.822;2022-07-23T17:46:50;5.55;;;4.75;;
20365;SDS011;10341;49.894;8.822;2022-07-23T17:52:09;5.35;;;4.47;;
20365;SDS011;10341;49.894;8.822;2022-07-23T17:57:28;7.57;;;5.55;;
20365;SDS011;10341;49.894;8.822;2022-07-23T18:02:47;6.10;;;4.40;;
20365;SDS011;10341;49.894;8.822;2022-07-23T18:08:07;4.43;;;3.50;;
20365;SDS011;10341;49.894;8.822;2022-07-23T18:13:26;5.55;;;4.25;;
20365;SDS011;10341;49.894;8.822;2022-07-23T18:18:45;4.97;;;3.90;;
20365;SDS011;10341;49.894;8.822;2022-07-23T18:24:05;5.87;;;4.40;;
20365;SDS011;10341;49.894;8.822;2022-07-23T18:29:24;4.57;;;3.47;;
20365;SDS011;10341;49.894;8.822;2022-07-23T18:34:43;5.07;;;3.47;;
20365;SDS011;10341;49.894;8.822;2022-07-23T18:40:04;5.10;;;3.40;;
20365;SDS011;10341;49.894;8.822;2022-07-23T18:45:25;5.28;;;4.00;;
20365;SDS011;10341;49.894;8.822;2022-07-23T18:50:45;3.97;;;3.58;;
20365;SDS011;10341;49.894;8.822;2022-07-23T18:56:05;4.10;;;3.65;;
20365;SDS011;10341;49.894;8.822;2022-07-23T19:01:24;4.47;;;3.50;;
20365;SDS011;10341;49.894;8.822;2022-07-23T19:06:48;4.55;;;3.58;;
20365;SDS011;10341;49.894;8.822;2022-07-23T19:12:07;6.13;;;4.37;;
20365;SDS011;10341;49.894;8.822;2022-07-23T19:17:26;5.25;;;4.22;;
20365;SDS011;10341;49.894;8.822;2022-07-23T19:22:46;5.22;;;4.53;;
20365;SDS011;10341;49.894;8.822;2022-07-23T19:28:05;4.67;;;3.93;;
20365;SDS011;10341;49.894;8.822;2022-07-23T19:33:24;5.53;;;4.55;;
20365;SDS011;10341;49.894;8.822;2022-07-23T19:38:44;5.07;;;4.57;;
20365;SDS011;10341;49.894;8.822;2022-07-23T19:44:03;5.47;;;4.85;;
20365;SDS011;10341;49.894;8.822;2022-07-23T19:49:22;6.70;;;4.88;;
20365;SDS011;10341;49.894;8.822;2022-07-23T19:54:42;11.65;;;8.10;;
20365;SDS011;10341;49.894;8.822;2022-07-23T20:00:02;8.20;;;5.60;;
20365;SDS011;10341;49.894;8.822;2022-07-23T20:05:26;7.82;;;5.35;;
20365;SDS011;10341;49.894;8.822;2022-07-23T20:10:46;6.70;;;4.60;;
20365;SDS011;10341;49.894;8.822;2022-07-23T20:16:06;5.40;;;4.63;;
20365;SDS011;10341;49.894;8.822;2022-07-23T20:26:46;5.80;;;4.63;;
20365;SDS011;10341;49.894;8.822;2022-07-23T20:32:06;7.53;;;6.05;;
20365;SDS011;10341;49.894;8.822;2022-07-23T20:37:26;6.50;;;4.82;;
20365;SDS011;10341;49.894;8.822;2022-07-23T20:42:45;6.72;;;4.25;;
20365;SDS011;10341;49.894;8.822;2022-07-23T20:48:04;5.03;;;4.53;;
20365;SDS011;10341;49.894;8.822;2022-07-23T20:53:24;6.30;;;4.40;;
20365;SDS011;10341;49.894;8.822;2022-07-23T20:58:43;8.05;;;5.60;;
20365;SDS011;10341;49.894;8.822;2022-07-23T21:04:02;5.37;;;4.67;;
20365;SDS011;10341;49.894;8.822;2022-07-23T21:09:22;5.07;;;3.95;;
20365;SDS011;10341;49.894;8.822;2022-07-23T21:14:42;5.78;;;4.60;;
20365;SDS011;10341;49.894;8.822;2022-07-23T21:20:02;6.65;;;4.75;;
20365;SDS011;10341;49.894;8.822;2022-07-23T21:25:23;7.95;;;4.75;;
20365;SDS011;10341;49.894;8.822;2022-07-23T21:30:42;8.98;;;4.57;;
20365;SDS011;10341;49.894;8.822;2022-07-23T21:36:02;6.00;;;4.80;;
20365;SDS011;10341;49.894;8.822;2022-07-23T21:41:21;6.10;;;4.93;;
20365;SDS011;10341;49.894;8.822;2022-07-23T21:46:41;5.00;;;4.43;;
20365;SDS011;10341;49.894;8.822;2022-07-23T21:52:01;6.25;;;4.55;;
20365;SDS011;10341;49.894;8.822;2022-07-23T21:57:19;4.85;;;4.13;;
20365;SDS011;10341;49.894;8.822;2022-07-23T22:02:38;5.95;;;4.60;;
20365;SDS011;10341;49.894;8.822;2022-07-23T22:07:58;6.22;;;4.85;;
20365;SDS011;10341;49.894;8.822;2022-07-23T22:13:17;6.90;;;4.65;;
20365;SDS011;10341;49.894;8.822;2022-07-23T22:18:36;5.03;;;4.50;;
20365;SDS011;10341;49.894;8.822;2022-07-23T22:23:55;5.95;;;4.68;;
20365;SDS011;10341;49.894;8.822;2022-07-23T22:29:14;6.07;;;4.70;;
20365;SDS011;10341;49.894;8.822;2022-07-23T22:34:33;7.57;;;5.13;;
20365;SDS011;10341;49.894;8.822;2022-07-23T22:39:52;7.18;;;5.00;;
20365;SDS011;10341;49.894;8.822;2022-07-23T22:45:12;6.60;;;4.43;;
20365;SDS011;10341;49.894;8.822;2022-07-23T22:50:31;7.90;;;4.88;;
20365;SDS011;10341;49.894;8.822;2022-07-23T22:55:50;5.32;;;4.68;;
20365;SDS011;10341;49.894;8.822;2022-07-23T23:01:10;7.03;;;4.90;;
20365;SDS011;10341;49.894;8.822;2022-07-23T23:06:29;7.63;;;5.15;;
20365;SDS011;10341;49.894;8.822;2022-07-23T23:11:49;8.27;;;5.30;;
20365;SDS011;10341;49.894;8.822;2022-07-23T23:17:09;8.57;;;4.90;;
20365;SDS011;10341;49.894;8.822;2022-07-23T23:22:29;7.35;;;4.90;;
20365;SDS011;10341;49.894;8.822;2022-07-23T23:27:48;5.75;;;5.10;;
20365;SDS011;10341;49.894;8.822;2022-07-23T23:33:07;6.57;;;5.13;;
20365;SDS011;10341;49.894;8.822;2022-07-23T23:38:26;7.90;;;5.27;;
20365;SDS011;10341;49.894;8.822;2022-07-23T23:43:45;5.78;;;4.65;;
20365;SDS011;10341;49.894;8.822;2022-07-23T23:49:04;6.75;;;5.03;;
20365;SDS011;10341;49.894;8.822;2022-07-23T23:54:23;6.00;;;4.68;;
20365;SDS011;10341;49.894;8.822;2022-07-23T23:59:42;6.20;;;4.88;;
